createdAt,value
2019-02-04T00:01:39.143Z,2.52
2019-02-04T00:04:10.223Z,2.57
2019-02-04T00:06:40.635Z,2.47
2019-02-04T00:09:10.796Z,2.60
2019-02-04T00:11:40.938Z,2.50
2019-02-04T00:14:11.371Z,2.45
2019-02-04T00:16:41.501Z,2.85
2019-02-04T00:19:11.663Z,2.60
2019-02-04T00:21:42.107Z,2.80
2019-02-04T00:24:12.279Z,2.62
2019-02-04T00:26:51.374Z,2.77
2019-02-04T00:29:14.180Z,2.33
2019-02-04T00:31:44.331Z,2.60
2019-02-04T00:34:14.571Z,2.85
2019-02-04T00:36:44.739Z,2.90
2019-02-04T00:39:14.883Z,2.95
2019-02-04T00:41:45.827Z,2.55
2019-02-04T00:44:16.035Z,2.57
2019-02-04T00:46:52.278Z,2.50
2019-02-04T00:49:17.988Z,2.60
2019-02-04T00:51:49.235Z,3.00
2019-02-04T00:54:19.570Z,2.50
2019-02-04T00:56:49.716Z,2.33
2019-02-04T00:59:19.859Z,2.60
2019-02-04T01:01:50.007Z,2.42
2019-02-04T01:04:20.232Z,2.50
2019-02-04T01:06:50.483Z,2.43
2019-02-04T01:09:20.710Z,2.30
2019-02-04T01:11:51.248Z,2.67
2019-02-04T01:14:22.008Z,2.80
2019-02-04T01:17:02.969Z,2.40
2019-02-04T01:19:24.583Z,2.90
2019-02-04T01:21:54.743Z,2.70
2019-02-04T01:24:24.876Z,2.80
2019-02-04T01:26:55.027Z,2.50
2019-02-04T01:29:25.151Z,2.30
2019-02-04T01:31:55.286Z,2.40
2019-02-04T01:34:25.524Z,2.33
2019-02-04T01:36:55.643Z,2.20
2019-02-04T01:39:25.767Z,2.47
2019-02-04T01:41:56.795Z,2.10
2019-02-04T01:44:26.927Z,2.47
2019-02-04T01:46:57.391Z,2.47
2019-02-04T01:49:27.537Z,2.00
2019-02-04T01:51:57.707Z,2.27
2019-02-04T01:54:39.568Z,2.47
2019-02-04T01:57:09.720Z,2.83
2019-02-04T01:59:39.851Z,2.40
2019-02-04T02:02:10.003Z,2.60
2019-02-04T02:04:40.201Z,2.10
2019-02-04T02:07:10.353Z,2.07
2019-02-04T02:09:40.499Z,2.40
2019-02-04T02:12:10.848Z,2.30
2019-02-04T02:14:40.976Z,2.30
2019-02-04T02:17:12.047Z,2.50
2019-02-04T02:19:42.190Z,2.33
2019-02-04T02:22:12.459Z,2.35
2019-02-04T02:24:42.907Z,2.87
2019-02-04T02:27:13.060Z,2.37
2019-02-04T02:29:45.574Z,2.62
2019-02-04T02:32:15.735Z,2.60
2019-02-04T02:34:45.860Z,2.00
2019-02-04T02:37:16.349Z,2.43
2019-02-04T02:39:47.391Z,2.00
2019-02-04T02:42:18.359Z,2.40
2019-02-04T02:44:48.849Z,1.90
2019-02-04T02:47:19.119Z,2.50
2019-02-04T02:49:50.176Z,2.50
2019-02-04T02:52:20.392Z,2.10
2019-02-04T02:54:50.534Z,2.20
2019-02-04T02:57:20.677Z,1.97
2019-02-04T02:59:50.836Z,2.10
2019-02-04T03:02:21.086Z,2.30
2019-02-04T03:04:51.548Z,2.15
2019-02-04T03:07:21.712Z,2.25
2019-02-04T03:09:51.864Z,2.12
2019-02-04T03:12:22.046Z,2.13
2019-02-04T03:14:52.170Z,2.17
2019-02-04T03:17:23.576Z,2.33
2019-02-04T03:19:53.816Z,2.47
2019-02-04T03:22:24.195Z,1.80
2019-02-04T03:24:54.343Z,2.10
2019-02-04T03:27:24.492Z,2.00
2019-02-04T03:29:54.667Z,2.23
2019-02-04T03:32:24.801Z,1.83
2019-02-04T03:34:56.023Z,2.40
2019-02-04T03:37:26.151Z,2.20
2019-02-04T03:39:56.279Z,2.47
2019-02-04T03:42:26.419Z,2.00
2019-02-04T03:44:56.768Z,1.70
2019-02-04T03:47:26.897Z,2.20
2019-02-04T03:49:57.147Z,1.90
2019-02-04T03:52:27.287Z,2.10
2019-02-04T03:54:57.439Z,1.90
2019-02-04T03:57:27.864Z,2.30
2019-02-04T03:59:58.038Z,1.90
2019-02-04T04:02:28.163Z,2.08
2019-02-04T04:04:58.302Z,2.00
2019-02-04T04:07:28.543Z,1.90
2019-02-04T04:09:58.776Z,1.80
2019-02-04T04:12:29.143Z,1.90
2019-02-04T04:14:59.275Z,1.90
2019-02-04T04:17:29.428Z,2.10
2019-02-04T04:19:59.559Z,1.92
2019-02-04T04:22:29.800Z,1.77
2019-02-04T04:25:00.944Z,1.93
2019-02-04T04:27:31.083Z,2.20
2019-02-04T04:30:01.225Z,1.80
2019-02-04T04:32:32.132Z,1.93
2019-02-04T04:35:02.739Z,1.80
2019-02-04T04:37:33.551Z,2.08
2019-02-04T04:40:03.978Z,2.08
2019-02-04T04:42:34.135Z,1.70
2019-02-04T04:45:04.959Z,1.90
2019-02-04T04:47:36.031Z,1.87
2019-02-04T04:50:06.987Z,2.00
2019-02-04T04:52:38.059Z,2.02
2019-02-04T04:55:09.371Z,2.20
2019-02-04T04:57:39.520Z,2.10
2019-02-04T05:00:12.947Z,2.00
2019-02-04T05:02:43.512Z,1.87
2019-02-04T05:05:14.436Z,1.92
2019-02-04T05:07:44.684Z,1.83
2019-02-04T05:10:16.503Z,1.67
2019-02-04T05:12:46.760Z,1.67
2019-02-04T05:15:18.982Z,1.75
2019-02-04T05:17:52.325Z,1.90
2019-02-04T05:20:21.501Z,1.83
2019-02-04T05:22:51.607Z,1.57
2019-02-04T05:25:21.751Z,1.70
2019-02-04T05:27:52.708Z,1.87
2019-02-04T05:30:25.320Z,1.90
2019-02-04T05:32:55.613Z,1.98
2019-02-04T05:35:25.720Z,1.87
2019-02-04T05:37:55.955Z,1.75
2019-02-04T05:40:26.107Z,1.70
2019-02-04T05:42:56.255Z,1.60
2019-02-04T05:45:27.192Z,1.50
2019-02-04T05:47:57.339Z,1.92
2019-02-04T05:50:27.461Z,1.63
2019-02-04T05:52:57.595Z,1.98
2019-02-04T05:55:30.501Z,2.00
2019-02-04T05:57:59.713Z,1.82
2019-02-04T06:00:55.315Z,1.55
2019-02-04T06:03:25.759Z,1.85
2019-02-04T06:05:55.935Z,1.55
2019-02-04T06:08:26.066Z,1.80
2019-02-04T06:10:56.215Z,1.98
2019-02-04T06:13:26.392Z,1.80
2019-02-04T06:15:56.533Z,2.10
2019-02-04T06:18:26.671Z,2.37
2019-02-04T06:20:56.901Z,2.57
2019-02-04T06:23:27.037Z,2.70
2019-02-04T06:25:57.414Z,3.10
2019-02-04T06:28:29.115Z,3.80
2019-02-04T06:31:00.103Z,4.70
2019-02-04T06:33:30.331Z,5.33
2019-02-04T06:36:00.555Z,6.87
2019-02-04T06:38:30.711Z,5.37
2019-02-04T06:41:01.463Z,5.67
2019-02-04T06:43:32.007Z,6.05
2019-02-04T06:46:02.233Z,6.37
2019-02-04T06:48:32.379Z,6.10
2019-02-04T06:51:02.531Z,6.53
2019-02-04T06:53:32.784Z,7.60
2019-02-04T06:56:02.927Z,6.80
2019-02-04T06:58:33.887Z,7.55
2019-02-04T07:01:04.139Z,7.80
2019-02-04T07:03:34.311Z,7.08
2019-02-04T07:06:04.550Z,8.20
2019-02-04T07:08:34.737Z,7.53
2019-02-04T07:11:05.215Z,7.22
2019-02-04T07:13:35.387Z,7.73
2019-02-04T07:16:07.438Z,8.40
2019-02-04T07:18:37.607Z,7.73
2019-02-04T07:21:07.748Z,7.40
2019-02-04T07:23:37.911Z,7.78
2019-02-04T07:26:08.081Z,6.83
2019-02-04T07:28:38.256Z,7.22
2019-02-04T07:31:08.423Z,7.50
2019-02-04T07:33:38.611Z,6.67
2019-02-04T07:36:08.787Z,7.22
2019-02-04T07:38:39.947Z,7.22
2019-02-04T07:41:10.172Z,7.08
2019-02-04T07:43:40.291Z,6.20
2019-02-04T07:46:11.359Z,6.75
2019-02-04T07:48:41.632Z,6.40
2019-02-04T07:51:11.804Z,6.83
2019-02-04T07:53:41.940Z,6.05
2019-02-04T07:56:12.098Z,5.97
2019-02-04T07:58:42.247Z,5.80
2019-02-04T08:01:12.419Z,7.07
2019-02-04T08:03:42.555Z,5.83
2019-02-04T08:06:12.911Z,5.67
2019-02-04T08:08:44.074Z,5.30
2019-02-04T08:11:14.253Z,5.17
2019-02-04T08:13:44.393Z,5.12
2019-02-04T08:16:14.548Z,4.97
2019-02-04T08:18:44.910Z,4.45
2019-02-04T08:21:15.053Z,5.08
2019-02-04T08:23:45.195Z,5.12
2019-02-04T08:26:15.437Z,4.63
2019-02-04T08:28:45.575Z,5.28
2019-02-04T08:31:15.738Z,4.72
2019-02-04T08:33:45.867Z,4.53
2019-02-04T08:36:16.039Z,4.45
2019-02-04T08:38:46.319Z,4.03
2019-02-04T08:41:16.458Z,4.30
2019-02-04T08:43:46.600Z,3.75
2019-02-04T08:46:17.440Z,4.22
2019-02-04T08:48:47.606Z,4.50
2019-02-04T08:51:17.731Z,4.20
2019-02-04T08:53:47.887Z,3.87
2019-02-04T08:56:18.027Z,3.92
2019-02-04T08:58:48.180Z,4.10
2019-02-04T09:01:18.311Z,4.10
2019-02-04T09:03:48.464Z,3.40
2019-02-04T09:06:18.610Z,3.95
2019-02-04T09:08:48.763Z,4.05
2019-02-04T09:11:19.616Z,3.33
2019-02-04T09:13:49.735Z,3.57
2019-02-04T09:16:31.003Z,3.70
2019-02-04T09:19:09.883Z,3.50
2019-02-04T09:21:48.428Z,3.40
2019-02-04T09:24:26.715Z,3.50
2019-02-04T09:26:58.531Z,3.15
2019-02-04T09:29:29.214Z,3.77
2019-02-04T09:31:59.353Z,3.37
2019-02-04T09:34:29.986Z,3.17
2019-02-04T09:37:01.163Z,3.50
2019-02-04T09:39:31.299Z,3.20
2019-02-04T09:42:01.451Z,3.37
2019-02-04T09:44:31.571Z,3.40
2019-02-04T09:47:01.736Z,2.93
2019-02-04T09:49:31.923Z,2.90
2019-02-04T09:52:02.395Z,3.10
2019-02-04T09:54:32.592Z,3.05
2019-02-04T09:57:02.771Z,2.75
2019-02-04T09:59:33.662Z,3.20
2019-02-04T10:02:03.795Z,2.75
2019-02-04T10:04:34.082Z,2.67
2019-02-04T10:07:04.213Z,2.73
2019-02-04T10:09:34.361Z,2.97
2019-02-04T10:12:05.075Z,2.67
2019-02-04T10:14:35.244Z,3.10
2019-02-04T10:17:05.384Z,2.72
2019-02-04T10:19:36.334Z,2.72
2019-02-04T10:22:06.559Z,2.67
2019-02-04T10:24:36.857Z,2.90
2019-02-04T10:27:07.064Z,2.58
2019-02-04T10:29:37.254Z,3.08
2019-02-04T10:32:08.101Z,2.92
2019-02-04T10:34:38.249Z,3.00
2019-02-04T10:37:08.355Z,3.05
2019-02-04T10:39:39.028Z,2.77
2019-02-04T10:42:09.159Z,3.37
2019-02-04T10:44:40.304Z,2.98
2019-02-04T10:47:10.954Z,3.35
2019-02-04T10:49:41.197Z,3.08
2019-02-04T10:52:11.368Z,2.75
2019-02-04T10:54:42.160Z,2.77
2019-02-04T10:57:12.279Z,3.00
2019-02-04T10:59:42.668Z,3.30
2019-02-04T11:02:13.241Z,2.70
2019-02-04T11:04:43.471Z,3.10
2019-02-04T11:07:13.544Z,3.18
2019-02-04T11:09:43.681Z,3.00
2019-02-04T11:12:15.016Z,3.02
2019-02-04T11:14:45.164Z,2.83
2019-02-04T11:17:15.372Z,3.35
2019-02-04T11:19:45.455Z,2.83
2019-02-04T11:22:16.051Z,3.12
2019-02-04T11:24:46.192Z,3.30
2019-02-04T11:27:16.331Z,2.53
2019-02-04T11:29:46.443Z,3.10
2019-02-04T11:32:16.936Z,3.10
2019-02-04T11:34:49.111Z,2.97
2019-02-04T11:37:18.907Z,2.83
2019-02-04T11:39:49.284Z,2.85
2019-02-04T11:42:19.426Z,3.00
2019-02-04T11:44:49.531Z,3.10
2019-02-04T11:47:19.731Z,2.80
2019-02-04T11:49:49.866Z,3.05
2019-02-04T11:52:20.385Z,2.87
2019-02-04T11:54:50.540Z,2.83
2019-02-04T11:57:20.667Z,2.80
2019-02-04T11:59:50.831Z,2.75
2019-02-04T12:02:21.075Z,2.92
2019-02-04T12:04:51.228Z,2.80
2019-02-04T12:07:21.663Z,2.90
2019-02-04T12:09:51.835Z,2.85
2019-02-04T12:12:21.967Z,2.65
2019-02-04T12:14:52.111Z,2.95
2019-02-04T12:17:22.307Z,2.60
2019-02-04T12:19:52.835Z,2.77
2019-02-04T12:22:22.959Z,3.47
2019-02-04T12:24:53.102Z,3.07
2019-02-04T12:27:31.790Z,2.95
2019-02-04T12:29:55.020Z,2.80
2019-02-04T12:32:25.187Z,3.30
2019-02-04T12:34:55.331Z,3.15
2019-02-04T12:37:25.483Z,2.70
2019-02-04T12:39:55.627Z,2.60
2019-02-04T12:42:25.779Z,2.72
2019-02-04T12:44:55.911Z,2.60
2019-02-04T12:47:26.519Z,3.08
2019-02-04T12:49:56.643Z,2.90
2019-02-04T12:52:26.864Z,2.42
2019-02-04T12:54:57.852Z,2.70
2019-02-04T12:57:27.958Z,3.08
2019-02-04T12:59:58.081Z,2.87
2019-02-04T13:02:28.204Z,2.75
2019-02-04T13:04:58.335Z,2.62
2019-02-04T13:07:28.472Z,2.95
2019-02-04T13:09:59.103Z,2.87
2019-02-04T13:12:29.260Z,3.17
2019-02-04T13:14:59.589Z,2.85
2019-02-04T13:17:30.414Z,2.95
2019-02-04T13:20:00.540Z,2.90
2019-02-04T13:22:30.699Z,2.70
2019-02-04T13:25:01.739Z,2.77
2019-02-04T13:27:31.919Z,2.90
2019-02-04T13:30:02.050Z,2.83
2019-02-04T13:32:33.460Z,2.83
2019-02-04T13:35:03.671Z,2.60
2019-02-04T13:37:33.835Z,2.93
2019-02-04T13:40:04.988Z,2.73
2019-02-04T13:42:35.463Z,2.42
2019-02-04T13:45:07.996Z,2.72
2019-02-04T13:47:38.431Z,2.80
2019-02-04T13:50:08.843Z,2.77
2019-02-04T13:52:39.007Z,2.67
2019-02-04T13:55:11.344Z,2.70
2019-02-04T13:57:41.500Z,2.65
2019-02-04T14:00:13.199Z,2.77
2019-02-04T14:02:43.363Z,2.80
2019-02-04T14:05:13.899Z,2.44
2019-02-04T14:07:45.436Z,2.50
2019-02-04T14:10:24.180Z,2.17
2019-02-04T14:12:55.104Z,2.67
2019-02-04T14:15:25.231Z,2.63
2019-02-04T14:17:58.091Z,2.52
2019-02-04T14:20:28.219Z,2.47
2019-02-04T14:22:58.368Z,2.67
2019-02-04T14:25:29.415Z,2.70
2019-02-04T14:27:59.655Z,2.72
2019-02-04T14:30:32.235Z,3.10
2019-02-04T14:33:02.384Z,2.30
2019-02-04T14:35:32.645Z,2.57
2019-02-04T14:38:02.872Z,2.50
2019-02-04T14:40:33.031Z,2.50
2019-02-04T14:43:10.227Z,2.33
2019-02-04T14:46:09.052Z,2.70
2019-02-04T14:49:21.019Z,2.47
2019-02-04T14:52:28.227Z,2.50
2019-02-04T14:55:17.103Z,2.30
2019-02-04T14:58:25.376Z,2.37
2019-02-04T15:02:01.484Z,2.50
2019-02-04T15:04:59.291Z,2.65
2019-02-04T15:08:00.399Z,2.60
2019-02-04T15:11:07.295Z,2.35
2019-02-04T15:14:15.919Z,2.30
2019-02-04T15:17:24.383Z,2.50
2019-02-04T15:20:20.580Z,2.55
2019-02-04T15:23:13.529Z,2.42
2019-02-04T15:26:33.791Z,2.70
2019-02-04T15:29:30.357Z,2.50
2019-02-04T15:32:17.635Z,2.33
2019-02-04T15:35:26.091Z,2.55
2019-02-04T15:38:05.702Z,2.45
2019-02-04T15:41:04.907Z,2.50
2019-02-04T15:44:22.159Z,2.55
2019-02-04T15:47:16.896Z,2.33
2019-02-04T15:50:34.683Z,2.85
2019-02-04T15:53:04.963Z,2.70
2019-02-04T15:55:35.104Z,2.75
2019-02-04T15:58:06.255Z,2.58
2019-02-04T16:00:36.394Z,2.23
2019-02-04T16:03:06.868Z,2.92
2019-02-04T16:05:37.917Z,2.80
2019-02-04T16:08:08.229Z,2.83
2019-02-04T16:10:38.369Z,2.25
2019-02-04T16:13:09.436Z,2.50
2019-02-04T16:15:42.263Z,2.55
2019-02-04T16:18:11.339Z,2.33
2019-02-04T16:20:41.499Z,2.30
2019-02-04T16:23:11.631Z,2.22
2019-02-04T16:25:41.939Z,2.50
2019-02-04T16:28:12.987Z,2.36
2019-02-04T16:30:43.171Z,2.65
2019-02-04T16:33:13.304Z,2.60
2019-02-04T16:35:43.482Z,2.85
2019-02-04T16:38:13.634Z,2.50
2019-02-04T16:40:43.795Z,2.08
2019-02-04T16:43:14.320Z,2.55
2019-02-04T16:45:44.487Z,2.50
2019-02-04T16:48:14.651Z,2.64
2019-02-04T16:50:57.406Z,2.50
2019-02-04T16:53:16.972Z,2.24
2019-02-04T16:55:47.112Z,2.47
2019-02-04T16:58:17.336Z,2.43
2019-02-04T17:00:48.223Z,2.95
2019-02-04T17:03:18.840Z,2.33
2019-02-04T17:05:49.004Z,2.62
2019-02-04T17:08:19.346Z,2.43
2019-02-04T17:10:49.776Z,2.70
2019-02-04T17:13:19.951Z,2.90
2019-02-04T17:15:50.083Z,2.80
2019-02-04T17:18:20.303Z,2.17
2019-02-04T17:20:50.626Z,2.62
2019-02-04T17:23:22.368Z,2.54
2019-02-04T17:25:52.711Z,2.60
2019-02-04T17:28:23.834Z,2.70
2019-02-04T17:30:54.055Z,2.80
2019-02-04T17:33:24.707Z,2.40
2019-02-04T17:35:54.851Z,2.42
2019-02-04T17:38:25.652Z,2.80
2019-02-04T17:40:55.878Z,3.00
2019-02-04T17:43:25.999Z,2.70
2019-02-04T17:45:56.856Z,2.42
2019-02-04T17:48:26.983Z,2.30
2019-02-04T17:50:57.123Z,2.58
2019-02-04T17:53:34.256Z,2.42
2019-02-04T17:55:59.938Z,2.70
2019-02-04T17:58:30.835Z,2.60
2019-02-04T18:01:01.554Z,2.67
2019-02-04T18:03:32.854Z,2.55
2019-02-04T18:06:04.055Z,2.67
2019-02-04T18:08:34.211Z,2.40
2019-02-04T18:11:04.579Z,2.40
2019-02-04T18:13:35.267Z,2.37
2019-02-04T18:16:06.679Z,2.75
2019-02-04T18:18:37.579Z,2.58
2019-02-04T18:21:07.731Z,2.47
2019-02-04T18:23:45.553Z,2.52
2019-02-04T18:26:09.639Z,2.52
2019-02-04T18:28:40.171Z,2.20
2019-02-04T18:31:11.131Z,2.25
2019-02-04T18:33:41.327Z,2.42
2019-02-04T18:36:11.487Z,2.40
2019-02-04T18:38:42.251Z,2.62
2019-02-04T18:41:12.415Z,2.20
2019-02-04T18:43:46.315Z,2.40
2019-02-04T18:46:16.455Z,2.30
2019-02-04T18:48:46.895Z,2.50
2019-02-04T18:51:17.720Z,2.62
2019-02-04T18:53:57.406Z,2.73
2019-02-04T18:56:19.615Z,2.42
2019-02-04T18:58:49.758Z,2.33
2019-02-04T19:01:20.140Z,2.20
2019-02-04T19:03:50.382Z,2.80
2019-02-04T19:06:20.556Z,2.27
2019-02-04T19:08:50.873Z,2.30
2019-02-04T19:11:20.992Z,2.55
2019-02-04T19:13:51.139Z,2.60
2019-02-04T19:16:21.608Z,2.65
2019-02-04T19:18:51.788Z,1.87
2019-02-04T19:21:21.927Z,2.55
2019-02-04T19:23:52.159Z,2.33
2019-02-04T19:26:22.299Z,2.25
2019-02-04T19:28:52.444Z,2.35
2019-02-04T19:31:25.344Z,2.42
2019-02-04T19:33:55.607Z,2.30
2019-02-04T19:36:25.948Z,2.30
2019-02-04T19:38:56.106Z,2.20
2019-02-04T19:41:26.237Z,2.10
2019-02-04T19:43:56.424Z,2.22
2019-02-04T19:46:26.562Z,2.40
2019-02-04T19:48:56.695Z,2.25
2019-02-04T19:51:26.915Z,2.35
2019-02-04T19:53:57.047Z,2.25
2019-02-04T19:56:27.191Z,2.08
2019-02-04T19:58:57.367Z,2.55
2019-02-04T20:01:27.523Z,2.60
2019-02-04T20:03:58.004Z,2.57
2019-02-04T20:06:28.336Z,2.25
2019-02-04T20:08:59.057Z,2.33
2019-02-04T20:11:29.204Z,2.40
2019-02-04T20:13:59.371Z,2.60
2019-02-04T20:16:30.563Z,2.33
2019-02-04T20:19:00.788Z,2.08
2019-02-04T20:21:30.955Z,2.37
2019-02-04T20:24:01.092Z,2.50
2019-02-04T20:26:31.319Z,2.50
2019-02-04T20:29:01.575Z,2.12
2019-02-04T20:31:32.479Z,2.30
2019-02-04T20:34:02.775Z,2.10
2019-02-04T20:36:33.039Z,2.27
2019-02-04T20:39:04.811Z,2.27
2019-02-04T20:41:36.549Z,2.50
2019-02-04T20:44:06.691Z,2.20
2019-02-04T20:46:36.849Z,2.70
2019-02-04T20:49:07.029Z,2.40
2019-02-04T20:51:38.770Z,2.10
2019-02-04T20:54:19.225Z,2.30
2019-02-04T20:56:40.746Z,2.30
2019-02-04T20:59:11.120Z,2.42
2019-02-04T21:01:41.335Z,2.40
2019-02-04T21:04:11.504Z,2.57
2019-02-04T21:06:41.640Z,2.20
2019-02-04T21:09:12.087Z,2.20
2019-02-04T21:11:42.331Z,2.50
2019-02-04T21:14:12.495Z,2.30
2019-02-04T21:16:42.645Z,2.47
2019-02-04T21:19:13.676Z,2.30
2019-02-04T21:21:43.798Z,2.17
2019-02-04T21:24:14.159Z,2.42
2019-02-04T21:26:44.588Z,2.33
2019-02-04T21:29:14.755Z,2.40
2019-02-04T21:31:44.956Z,2.25
2019-02-04T21:34:15.238Z,2.57
2019-02-04T21:36:45.619Z,2.27
2019-02-04T21:39:15.840Z,2.55
2019-02-04T21:41:46.041Z,2.50
2019-02-04T21:44:16.256Z,2.52
2019-02-04T21:46:46.387Z,2.70
2019-02-04T21:49:16.549Z,2.40
2019-02-04T21:51:46.747Z,2.62
2019-02-04T21:54:18.275Z,2.70
2019-02-04T21:56:48.423Z,2.20
2019-02-04T21:59:18.599Z,2.30
2019-02-04T22:01:48.743Z,2.42
2019-02-04T22:04:18.907Z,2.53
2019-02-04T22:06:49.467Z,2.30
2019-02-04T22:09:19.885Z,2.60
2019-02-04T22:11:50.117Z,2.30
2019-02-04T22:14:20.255Z,2.58
2019-02-04T22:16:50.495Z,2.30
2019-02-04T22:19:20.622Z,2.60
2019-02-04T22:21:50.844Z,2.30
2019-02-04T22:24:21.053Z,2.25
2019-02-04T22:26:51.275Z,2.25
2019-02-04T22:29:21.712Z,2.40
2019-02-04T22:31:51.879Z,2.45
2019-02-04T22:34:22.200Z,2.50
2019-02-04T22:36:52.665Z,2.43
2019-02-04T22:39:22.795Z,2.10
2019-02-04T22:41:52.964Z,2.40
2019-02-04T22:44:23.084Z,2.52
2019-02-04T22:46:53.247Z,1.87
2019-02-04T22:49:23.376Z,2.55
2019-02-04T22:51:53.711Z,2.20
2019-02-04T22:54:24.103Z,2.15
2019-02-04T22:56:54.234Z,2.60
2019-02-04T22:59:24.388Z,2.00
2019-02-04T23:01:57.255Z,2.27
2019-02-04T23:04:27.767Z,2.05
2019-02-04T23:06:57.975Z,2.60
2019-02-04T23:09:28.137Z,2.02
2019-02-04T23:11:58.271Z,1.90
2019-02-04T23:14:28.427Z,2.12
2019-02-04T23:16:59.613Z,2.35
2019-02-04T23:19:30.340Z,2.35
2019-02-04T23:22:00.560Z,2.27
2019-02-04T23:24:30.688Z,2.08
2019-02-04T23:27:00.907Z,2.10
2019-02-04T23:29:31.752Z,2.33
2019-02-04T23:32:01.891Z,2.10
2019-02-04T23:34:32.959Z,2.45
2019-02-04T23:37:03.167Z,2.37
2019-02-04T23:39:34.211Z,2.35
2019-02-04T23:42:04.833Z,2.08
2019-02-04T23:44:35.727Z,2.13
2019-02-04T23:47:06.144Z,2.35
2019-02-04T23:49:37.424Z,2.30
2019-02-04T23:52:07.607Z,2.22
2019-02-04T23:54:37.731Z,2.23
2019-02-04T23:57:07.893Z,2.22
2019-02-04T23:59:38.031Z,2.52
